Souderton, PA

12:36 PM EST en Noviembre 22, 2014 (GMT -0500)
Pottstown Limerick | Change Station
CLOSE
Current Station
Aeropuerto
Location: Pottstown,
Altura: 308 ft
Estaciones meteorológicas cercanas

Alt 308 ft 40.24 °N, 75.55 °W | Updated 42 minutes ago

Despejado
Despejado
40 ° F
Sensación térmica 34 ° F
N
9
Viento Variable Viento desde SSO

Hoy
Alta -- | Baja -- ° F
--% Posibilidad de precipitaciones
Ayer
Alta -- | Baja -- ° F
Precip. -- pul
6:55 AM 4:39 PM
Luna nueva, 0% visible
Presión 30.40 pul
Visibilidad 10.0 Millas
Nubes Despejado
Vientos helados 34 ° F
Punto de rocío 13 ° F
Humedad 33%
Precipitaciones 0.00 pul
Espesor de la nieve No disponible.
UV 3 de una escala de 12
Polen .10 de una escala de 12
Calidad del aire No disponible.
Flu Activity No disponible.
METAR KPTW 221654Z AUTO 21008KT 180V240 10SM CLR 04/M11 A3040 RMK AO2 SLP295 T00441106

More Conditions Fewer Conditions

Presión 30.40 pul
Visibilidad 10.0 Millas
Nubes Despejado
Vientos helados 34 ° F
Punto de rocío 13 ° F
Humedad 33%
Precipitaciones 0.00 pul
Espesor de la nieve No disponible.
UV 3 de una escala de 12
Polen .10 de una escala de 12
Calidad del aire No disponible.
Flu Activity No disponible.
METAR KPTW 221654Z AUTO 21008KT 180V240 10SM CLR 04/M11 A3040 RMK AO2 SLP295 T00441106

More Conditions Fewer Conditions

10-Day Weather Forecast

Almanac

Astronomía

Nov. 22, 2014 Salida Puesta
Hora real
Crepúsculo civil
Crepúsculo náutico
Crepúsculo astronómico
Luna
Horas de luz
Horas de luz
Tomorrow will be .
, % of the Moon is Illuminated

Extremos de hoy

Máximos del estado Bajos del estado

Community

WunderPhotos

Upload Photos

1,772,867 ¡fotos cargadas!

WunderBlogs® & News

Nearby

Calidad del aire

  Calidad del aire Índice AQ Contaminante
Not available.

Grosos de nieve

Estación Profundido Altura

Actividad de terremotos

Ciudad Distance Mag. Tiempo y dato
Magnitud mínima muestra es 2,5.

Temperaturas de aguas costeras

Lugar Temperatura

Estaciones meteorológicas cercanas